createdAt,value
2023-02-02T00:02:41.719Z,1.40
2023-02-02T00:06:43.675Z,1.03
2023-02-02T00:10:45.751Z,1.50
2023-02-02T00:14:47.504Z,1.33
2023-02-02T00:18:49.481Z,1.40
2023-02-02T00:22:53.708Z,1.40
2023-02-02T00:26:58.460Z,1.30
2023-02-02T00:31:00.397Z,0.90
2023-02-02T00:35:02.455Z,1.10
2023-02-02T00:39:04.336Z,1.17
2023-02-02T00:43:06.200Z,1.07
2023-02-02T00:47:08.130Z,0.97
2023-02-02T00:51:10.094Z,1.10
2023-02-02T00:55:12.180Z,1.10
2023-02-02T00:59:14.018Z,1.07
2023-02-02T01:03:16.298Z,1.33
2023-02-02T01:07:18.141Z,1.53
2023-02-02T01:11:20.129Z,1.30
2023-02-02T01:20:48.376Z,1.07
2023-02-02T01:24:50.288Z,1.20
2023-02-02T01:28:52.154Z,1.30
2023-02-02T01:32:53.995Z,1.27
2023-02-02T01:36:55.845Z,1.17
2023-02-02T01:40:58.052Z,1.00
2023-02-02T01:45:24.569Z,1.10
2023-02-02T01:49:26.506Z,1.30
2023-02-02T01:53:28.812Z,1.13
2023-02-02T01:57:42.614Z,1.00
2023-02-02T02:01:45.180Z,1.40
2023-02-02T02:06:07.694Z,1.67
2023-02-02T02:10:10.378Z,1.30
2023-02-02T02:14:31.919Z,2.17
2023-02-02T02:18:59.735Z,1.40
2023-02-02T02:23:42.557Z,1.30
2023-02-02T02:28:21.930Z,1.73
2023-02-02T02:32:44.842Z,1.20
2023-02-02T02:36:51.771Z,2.43
2023-02-02T02:41:00.256Z,1.23
2023-02-02T02:45:03.313Z,1.20
2023-02-02T02:49:08.096Z,1.37
2023-02-02T02:53:23.143Z,1.37
2023-02-02T02:57:55.683Z,1.43
2023-02-02T03:03:06.266Z,1.33
2023-02-02T03:07:18.793Z,1.27
2023-02-02T03:11:20.495Z,1.30
2023-02-02T03:15:22.695Z,1.30
2023-02-02T03:19:24.625Z,1.30
2023-02-02T03:23:26.773Z,1.40
2023-02-02T03:27:28.701Z,1.50
2023-02-02T03:31:30.518Z,1.30
2023-02-02T03:35:32.475Z,1.37
2023-02-02T03:39:37.351Z,1.30
2023-02-02T03:43:39.293Z,1.60
2023-02-02T03:47:41.322Z,1.10
2023-02-02T03:51:44.823Z,1.50
2023-02-02T03:56:03.239Z,1.20
2023-02-02T04:00:23.256Z,1.37
2023-02-02T04:04:27.213Z,1.33
2023-02-02T04:08:31.636Z,1.60
2023-02-02T04:12:33.667Z,1.20
2023-02-02T04:16:37.696Z,1.23
2023-02-02T04:20:39.755Z,1.73
2023-02-02T04:24:44.085Z,1.50
2023-02-02T04:28:48.570Z,1.20
2023-02-02T04:32:51.529Z,1.40
2023-02-02T04:36:53.604Z,1.27
2023-02-02T04:40:55.950Z,1.40
2023-02-02T04:45:00.369Z,1.13
2023-02-02T04:49:02.433Z,1.83
2023-02-02T04:53:04.915Z,1.20
2023-02-02T04:57:06.793Z,1.70
2023-02-02T05:01:28.420Z,1.83
2023-02-02T05:05:34.202Z,2.10
2023-02-02T05:09:40.873Z,1.50
2023-02-02T05:13:51.413Z,2.00
2023-02-02T05:17:55.662Z,1.53
2023-02-02T05:22:00.089Z,1.30
2023-02-02T05:26:04.503Z,1.93
2023-02-02T05:30:07.509Z,1.20
2023-02-02T05:34:11.519Z,1.27
2023-02-02T05:38:16.328Z,1.23
2023-02-02T05:42:18.212Z,1.20
2023-02-02T05:46:20.187Z,1.30
2023-02-02T05:50:24.899Z,1.57
2023-02-02T05:54:26.757Z,1.10
2023-02-02T05:58:28.656Z,1.30
2023-02-02T06:02:42.228Z,1.30
2023-02-02T06:07:19.148Z,1.40
2023-02-02T06:11:20.860Z,1.97
2023-02-02T06:15:22.913Z,1.30
2023-02-02T06:19:27.659Z,1.50
2023-02-02T06:23:29.930Z,1.73
2023-02-02T06:27:34.515Z,1.50
2023-02-02T06:31:40.389Z,1.60
2023-02-02T06:35:42.579Z,1.90
2023-02-02T06:39:44.500Z,1.60
2023-02-02T06:43:48.983Z,1.70
2023-02-02T06:47:51.057Z,1.43
2023-02-02T06:51:52.884Z,1.80
2023-02-02T06:55:57.179Z,1.70
2023-02-02T07:00:01.769Z,1.47
2023-02-02T07:04:03.907Z,1.60
2023-02-02T07:08:05.916Z,1.60
2023-02-02T07:12:13.408Z,1.50
2023-02-02T07:16:16.543Z,1.53
2023-02-02T07:20:18.608Z,1.40
2023-02-02T07:24:22.781Z,1.97
2023-02-02T07:28:24.588Z,1.63
2023-02-02T07:32:26.517Z,1.80
2023-02-02T07:36:41.589Z,1.80
2023-02-02T07:40:43.614Z,1.57
2023-02-02T07:44:45.426Z,2.17
2023-02-02T07:48:47.469Z,1.40
2023-02-02T07:52:49.333Z,2.17
2023-02-02T07:56:51.191Z,1.70
2023-02-02T08:00:53.244Z,1.80
2023-02-02T08:04:55.400Z,2.13
2023-02-02T08:08:57.373Z,1.67
2023-02-02T08:13:02.053Z,1.73
2023-02-02T08:17:04.080Z,1.87
2023-02-02T08:21:08.466Z,1.60
2023-02-02T08:25:10.292Z,2.07
2023-02-02T08:29:12.126Z,1.70
2023-02-02T08:33:14.047Z,2.03
2023-02-02T08:37:15.818Z,1.60
2023-02-02T08:41:21.924Z,1.53
2023-02-02T08:46:01.237Z,1.50
2023-02-02T08:49:45.706Z,1.80
2023-02-02T08:53:47.685Z,2.03
2023-02-02T08:57:51.431Z,2.30
2023-02-02T09:01:53.247Z,2.80
2023-02-02T09:05:58.186Z,2.07
2023-02-02T09:10:03.122Z,1.70
2023-02-02T09:14:06.918Z,1.90
2023-02-02T09:18:11.920Z,2.10
2023-02-02T09:22:13.765Z,1.97
2023-02-02T09:26:19.408Z,1.83
2023-02-02T09:30:21.468Z,1.90
2023-02-02T09:34:23.195Z,1.83
2023-02-02T09:38:27.129Z,1.53
2023-02-02T09:43:02.146Z,1.90
2023-02-02T09:47:35.664Z,1.90
2023-02-02T09:51:43.438Z,2.00
2023-02-02T09:55:50.680Z,1.63
2023-02-02T09:59:55.072Z,2.00
2023-02-02T10:04:21.572Z,2.47
2023-02-02T10:08:49.088Z,2.30
2023-02-02T10:13:20.399Z,1.97
2023-02-02T10:17:42.255Z,2.50
2023-02-02T10:22:06.559Z,1.90
2023-02-02T10:26:36.785Z,2.10
2023-02-02T10:31:01.184Z,1.63
2023-02-02T10:35:38.369Z,2.13
2023-02-02T10:40:22.997Z,2.00
2023-02-02T10:44:57.147Z,2.10
2023-02-02T10:49:33.123Z,1.73
2023-02-02T10:53:36.245Z,2.50
2023-02-02T10:58:20.993Z,1.80
2023-02-02T11:02:25.458Z,2.50
2023-02-02T11:06:46.312Z,1.87
2023-02-02T11:10:52.329Z,2.17
2023-02-02T11:15:27.301Z,2.00
2023-02-02T11:19:30.582Z,2.30
2023-02-02T11:23:33.684Z,2.77
2023-02-02T11:27:40.071Z,1.80
2023-02-02T11:31:42.372Z,1.97
2023-02-02T11:36:00.356Z,2.10
2023-02-02T11:40:34.765Z,2.10
2023-02-02T11:44:37.436Z,2.37
2023-02-02T11:48:48.621Z,2.60
2023-02-02T11:52:52.783Z,2.20
2023-02-02T11:56:57.727Z,2.20
2023-02-02T12:01:03.164Z,1.90
2023-02-02T12:05:19.970Z,2.30
2023-02-02T12:09:24.827Z,2.10
2023-02-02T12:14:24.386Z,2.23
2023-02-02T12:18:54.311Z,2.60
2023-02-02T12:28:16.547Z,2.87
2023-02-02T12:32:46.072Z,3.40
2023-02-02T12:36:54.349Z,2.33
2023-02-02T12:41:30.308Z,1.83
2023-02-02T12:46:00.891Z,2.37
2023-02-02T12:50:20.568Z,1.80
2023-02-02T12:55:24.342Z,2.17
2023-02-02T12:59:53.427Z,1.50
2023-02-02T13:04:33.405Z,2.20
2023-02-02T13:08:52.189Z,2.13
2023-02-02T13:13:29.631Z,1.80
2023-02-02T13:17:53.853Z,1.73
2023-02-02T13:21:57.087Z,1.80
2023-02-02T13:26:58.390Z,2.00
2023-02-02T13:31:01.400Z,1.87
2023-02-02T13:35:59.083Z,1.63
2023-02-02T13:40:25.558Z,1.40
2023-02-02T13:44:38.886Z,1.27
2023-02-02T13:49:24.633Z,1.30
2023-02-02T13:53:37.111Z,1.50
2023-02-02T14:02:35.842Z,1.80
2023-02-02T14:07:10.906Z,1.57
2023-02-02T14:11:19.996Z,1.50
2023-02-02T14:15:43.706Z,1.50
2023-02-02T14:19:54.443Z,1.87
2023-02-02T14:23:57.747Z,2.17
2023-02-02T14:28:44.110Z,1.57
2023-02-02T14:32:46.697Z,1.93
2023-02-02T14:37:02.463Z,2.33
2023-02-02T14:42:15.553Z,2.40
2023-02-02T14:46:33.092Z,2.73
2023-02-02T14:50:37.879Z,1.77
2023-02-02T14:54:51.914Z,2.27
2023-02-02T14:59:00.572Z,2.30
2023-02-02T15:03:53.346Z,2.20
2023-02-02T15:08:22.121Z,1.80
2023-02-02T15:13:43.929Z,1.70
2023-02-02T15:18:35.262Z,2.20
2023-02-02T15:22:54.872Z,2.30
2023-02-02T15:27:10.168Z,2.00
2023-02-02T15:31:48.045Z,1.93
2023-02-02T15:36:07.717Z,1.87
2023-02-02T15:40:34.980Z,2.00
2023-02-02T15:44:42.193Z,2.17
2023-02-02T15:49:04.368Z,2.30
2023-02-02T15:53:11.958Z,1.80
2023-02-02T15:57:24.105Z,1.77
2023-02-02T16:01:27.491Z,1.43
2023-02-02T16:05:32.546Z,1.97
2023-02-02T16:09:35.608Z,2.30
2023-02-02T16:13:40.819Z,2.13
2023-02-02T16:17:45.987Z,2.73
2023-02-02T16:22:04.739Z,2.47
2023-02-02T16:26:18.077Z,2.97
2023-02-02T16:30:39.082Z,2.70
2023-02-02T16:34:47.104Z,1.87
2023-02-02T16:38:57.680Z,1.90
2023-02-02T16:44:00.369Z,1.87
2023-02-02T16:48:32.838Z,1.30
2023-02-02T16:52:57.474Z,1.33
2023-02-02T16:57:07.252Z,1.40
2023-02-02T17:10:40.282Z,1.97
2023-02-02T17:15:20.893Z,2.33
2023-02-02T17:19:47.720Z,2.03
2023-02-02T17:24:12.409Z,2.17
2023-02-02T17:28:25.513Z,2.50
2023-02-02T17:38:05.323Z,2.97
2023-02-02T17:42:16.306Z,3.60
2023-02-02T17:45:37.030Z,2.97
2023-02-02T17:46:40.006Z,3.50
2023-02-02T17:50:49.327Z,2.90
2023-02-02T17:54:57.112Z,1.97
2023-02-02T17:59:01.658Z,2.40
2023-02-02T18:03:31.872Z,2.77
2023-02-02T18:07:40.051Z,2.80
2023-02-02T18:11:55.304Z,3.90
2023-02-02T18:20:53.230Z,3.87
2023-02-02T18:25:30.435Z,7.90
2023-02-02T18:29:36.469Z,4.80
2023-02-02T18:33:54.125Z,3.70
2023-02-02T18:37:59.084Z,3.03
2023-02-02T18:42:37.490Z,2.77
2023-02-02T18:46:39.638Z,2.27
2023-02-02T18:52:15.563Z,2.67
2023-02-02T18:57:42.331Z,3.70
2023-02-02T19:02:24.077Z,2.53
2023-02-02T19:07:03.529Z,2.30
2023-02-02T19:11:29.110Z,3.20
2023-02-02T19:15:40.724Z,2.67
2023-02-02T19:19:45.943Z,2.90
2023-02-02T19:23:51.315Z,2.53
2023-02-02T19:28:03.769Z,2.70
2023-02-02T19:32:29.371Z,3.30
2023-02-02T20:55:01.960Z,2.97
2023-02-02T20:59:07.411Z,2.43
2023-02-02T21:03:13.504Z,2.40
2023-02-02T21:07:22.157Z,2.33
2023-02-02T21:11:24.245Z,2.13
2023-02-02T21:15:31.583Z,2.23
2023-02-02T21:19:43.560Z,2.20
2023-02-02T21:24:01.962Z,2.00
2023-02-02T21:28:04.190Z,2.23
2023-02-02T21:32:11.682Z,2.47
2023-02-02T21:36:32.371Z,2.23
2023-02-02T21:40:39.299Z,2.70
2023-02-02T21:45:14.246Z,2.63
2023-02-02T21:49:37.071Z,2.50
2023-02-02T21:53:39.085Z,2.73
2023-02-02T21:57:42.304Z,2.67
2023-02-02T22:01:47.687Z,3.00
2023-02-02T22:05:52.030Z,2.73
2023-02-02T22:10:07.254Z,2.70
2023-02-02T22:14:33.565Z,2.03
2023-02-02T22:18:35.606Z,2.37
2023-02-02T22:22:37.688Z,2.37
2023-02-02T22:26:41.789Z,2.37
2023-02-02T22:30:55.295Z,2.43
2023-02-02T22:34:59.965Z,2.07
2023-02-02T22:39:02.060Z,1.70
2023-02-02T22:43:07.222Z,2.10
2023-02-02T22:47:09.207Z,2.57
2023-02-02T22:51:11.107Z,2.23
2023-02-02T22:55:13.558Z,3.00
2023-02-02T22:59:16.404Z,2.63
2023-02-02T23:03:18.539Z,2.37
2023-02-02T23:07:20.434Z,2.80
2023-02-02T23:11:22.234Z,2.73
2023-02-02T23:15:24.107Z,2.30
2023-02-02T23:19:25.948Z,2.70
2023-02-02T23:23:27.858Z,2.53
2023-02-02T23:27:30.854Z,2.77
2023-02-02T23:31:32.796Z,2.73
2023-02-02T23:35:34.829Z,2.90
2023-02-02T23:39:36.823Z,3.17
2023-02-02T23:43:38.668Z,3.07
2023-02-02T23:47:40.447Z,3.23
2023-02-02T23:51:42.311Z,3.63
2023-02-02T23:55:45.783Z,3.07
2023-02-02T23:59:47.667Z,3.30
